Time;durP1;ratioP1;P1;durP2;ratioP2;P2;SDS_P1;SDS_P2;PMS_P1;PMS_P2;Temp;Humidity;BMP_temperature;BMP_pressure;BME280_temperature;BME280_humidity;BME280_pressure;Samples;Min_cycle;Max_cycle;Signal;HPM_P1;HPM_P2
2022/01/09 00:00:44;;;;;;;1.40;1.30;;;;;;;;;;5072597;28;20619;-61
2022/01/09 00:03:10;;;;;;;1.50;1.40;;;;;;;;;;5084158;28;20214;-62
2022/01/09 00:05:37;;;;;;;1.00;1.00;;;;;;;;;;5086921;28;20179;-60
2022/01/09 00:08:03;;;;;;;1.00;1.00;;;;;;;;;;5086764;28;20429;-59
2022/01/09 00:10:31;;;;;;;1.20;1.10;;;;;;;;;;5085178;28;20188;-60
2022/01/09 00:12:57;;;;;;;1.10;1.00;;;;;;;;;;5086204;28;20267;-60
2022/01/09 00:15:23;;;;;;;1.03;0.93;;;;;;;;;;5085507;28;20178;-60
2022/01/09 00:17:49;;;;;;;1.00;0.90;;;;;;;;;;5085933;28;20561;-60
2022/01/09 00:20:15;;;;;;;1.63;1.00;;;;;;;;;;5086269;28;20259;-60
2022/01/09 00:22:50;;;;;;;1.30;1.20;;;;;;;;;;5064592;28;20222;-61
2022/01/09 00:25:18;;;;;;;1.27;1.17;;;;;;;;;;5087489;28;20258;-61
2022/01/09 00:27:44;;;;;;;1.17;1.10;;;;;;;;;;5089120;28;20179;-61
2022/01/09 00:30:11;;;;;;;0.97;0.93;;;;;;;;;;5070867;28;20951;-60
2022/01/09 00:32:37;;;;;;;1.57;1.00;;;;;;;;;;5089279;28;20214;-61
2022/01/09 00:35:04;;;;;;;1.10;1.00;;;;;;;;;;5090268;28;20168;-60
2022/01/09 00:37:30;;;;;;;1.17;1.07;;;;;;;;;;5090115;28;20414;-60
2022/01/09 00:39:56;;;;;;;1.30;1.20;;;;;;;;;;5061742;28;20190;-60
2022/01/09 00:42:22;;;;;;;1.30;1.17;;;;;;;;;;5084145;28;20215;-60
2022/01/09 00:44:48;;;;;;;1.17;1.07;;;;;;;;;;5089201;28;20972;-61
2022/01/09 00:47:14;;;;;;;1.23;1.13;;;;;;;;;;5089692;28;20348;-60
2022/01/09 00:49:40;;;;;;;1.00;0.93;;;;;;;;;;5088879;28;20172;-60
2022/01/09 00:52:07;;;;;;;0.90;0.90;;;;;;;;;;5072181;28;20230;-61
2022/01/09 00:54:33;;;;;;;1.00;0.90;;;;;;;;;;5088408;28;20251;-60
2022/01/09 00:56:59;;;;;;;0.60;0.60;;;;;;;;;;5087550;28;20202;-60
2022/01/09 00:59:25;;;;;;;1.27;1.17;;;;;;;;;;5083561;28;20242;-60
2022/01/09 01:01:51;;;;;;;1.30;1.20;;;;;;;;;;5084421;28;20271;-60
2022/01/09 01:04:17;;;;;;;2.00;1.40;;;;;;;;;;5070207;28;20223;-60
2022/01/09 01:06:43;;;;;;;1.23;1.13;;;;;;;;;;5088879;28;20542;-60
2022/01/09 01:09:09;;;;;;;1.20;1.10;;;;;;;;;;5087997;28;20168;-62
2022/01/09 01:11:35;;;;;;;0.90;0.80;;;;;;;;;;5085696;28;20187;-60
2022/01/09 01:14:01;;;;;;;0.83;0.83;;;;;;;;;;5085735;28;20635;-60
2022/01/09 01:16:27;;;;;;;0.90;0.90;;;;;;;;;;5085043;28;20475;-60
2022/01/09 01:18:55;;;;;;;0.90;0.90;;;;;;;;;;5085729;28;20647;-60
2022/01/09 01:21:23;;;;;;;1.27;1.17;;;;;;;;;;5088966;28;20237;-60
2022/01/09 01:23:49;;;;;;;1.00;1.00;;;;;;;;;;5069691;28;20199;-61
2022/01/09 01:26:15;;;;;;;0.70;0.70;;;;;;;;;;5089168;28;20424;-61
2022/01/09 01:28:41;;;;;;;0.80;0.80;;;;;;;;;;5086892;28;20180;-60
2022/01/09 01:31:07;;;;;;;0.80;0.80;;;;;;;;;;5086385;28;20515;-60
2022/01/09 01:33:33;;;;;;;1.07;0.93;;;;;;;;;;5082108;28;20195;-60
2022/01/09 01:36:01;;;;;;;1.20;1.10;;;;;;;;;;5089150;28;20187;-60
2022/01/09 01:38:27;;;;;;;2.10;0.80;;;;;;;;;;5087910;28;20417;-60
2022/01/09 01:40:53;;;;;;;0.80;0.80;;;;;;;;;;5088509;28;20245;-60
2022/01/09 01:43:19;;;;;;;1.10;1.00;;;;;;;;;;5086900;28;20590;-61
2022/01/09 01:45:45;;;;;;;1.43;1.10;;;;;;;;;;5086434;28;20167;-60
2022/01/09 01:48:11;;;;;;;1.03;0.90;;;;;;;;;;5087020;28;20572;-60
2022/01/09 01:50:38;;;;;;;1.10;0.97;;;;;;;;;;5086847;28;20543;-60
2022/01/09 01:53:06;;;;;;;1.20;1.10;;;;;;;;;;5087903;28;20202;-60
2022/01/09 01:55:36;;;;;;;0.93;0.93;;;;;;;;;;5084103;28;20480;-61
2022/01/09 01:58:03;;;;;;;1.20;1.10;;;;;;;;;;5081967;28;20290;-60
2022/01/09 02:00:29;;;;;;;1.20;1.10;;;;;;;;;;5085191;28;20262;-60
2022/01/09 02:02:55;;;;;;;1.07;0.97;;;;;;;;;;5086097;28;20240;-60
2022/01/09 02:05:21;;;;;;;1.20;1.07;;;;;;;;;;5087712;28;20179;-60
2022/01/09 02:07:47;;;;;;;1.27;1.17;;;;;;;;;;5088358;28;20180;-60
2022/01/09 02:10:13;;;;;;;1.27;1.17;;;;;;;;;;5086690;28;20182;-60
2022/01/09 02:12:40;;;;;;;2.33;1.40;;;;;;;;;;5077476;28;20225;-60
2022/01/09 02:15:25;;;;;;;1.43;1.33;;;;;;;;;;5085856;28;20764;-60
2022/01/09 02:17:51;;;;;;;1.77;1.67;;;;;;;;;;5076400;28;20177;-60
2022/01/09 02:20:17;;;;;;;2.03;1.63;;;;;;;;;;5087121;28;20217;-60
2022/01/09 02:22:43;;;;;;;1.83;1.67;;;;;;;;;;5065300;28;20542;-60
2022/01/09 02:25:11;;;;;;;2.43;2.23;;;;;;;;;;5086751;28;20214;-60
2022/01/09 02:27:37;;;;;;;1.63;1.53;;;;;;;;;;5068337;28;20316;-60
2022/01/09 02:30:04;;;;;;;2.27;2.03;;;;;;;;;;5084252;28;20648;-60
2022/01/09 02:32:30;;;;;;;1.60;1.50;;;;;;;;;;5083774;28;20172;-60
2022/01/09 02:34:56;;;;;;;3.37;1.63;;;;;;;;;;5087221;28;20203;-60
2022/01/09 02:37:22;;;;;;;1.90;1.70;;;;;;;;;;5087258;28;21467;-60
2022/01/09 02:39:49;;;;;;;2.17;1.80;;;;;;;;;;5087034;28;20175;-60
2022/01/09 02:42:24;;;;;;;1.90;1.50;;;;;;;;;;5084846;28;20168;-60
2022/01/09 02:44:50;;;;;;;3.60;1.63;;;;;;;;;;5068226;28;20260;-60
2022/01/09 02:47:16;;;;;;;1.70;1.60;;;;;;;;;;5086171;28;20176;-60
2022/01/09 02:49:47;;;;;;;1.97;1.50;;;;;;;;;;5067477;28;20666;-60
2022/01/09 02:52:27;;;;;;;1.93;1.80;;;;;;;;;;5066279;28;20187;-60
2022/01/09 02:55:12;;;;;;;3.90;1.97;;;;;;;;;;5077127;28;20250;-60
2022/01/09 02:58:07;;;;;;;1.87;1.63;;;;;;;;;;5066868;28;20195;-60
2022/01/09 03:00:34;;;;;;;3.27;2.00;;;;;;;;;;5054701;28;20227;-59
2022/01/09 03:03:01;;;;;;;1.47;1.33;;;;;;;;;;5080942;28;20211;-60
2022/01/09 03:05:28;;;;;;;1.40;1.30;;;;;;;;;;5089463;28;20716;-60
2022/01/09 03:07:54;;;;;;;1.53;1.43;;;;;;;;;;5069015;28;20337;-60
2022/01/09 03:10:21;;;;;;;1.93;1.20;;;;;;;;;;5087322;28;20692;-61
2022/01/09 03:12:48;;;;;;;2.27;1.40;;;;;;;;;;5065569;28;20221;-60
2022/01/09 03:15:14;;;;;;;1.90;0.97;;;;;;;;;;5085023;28;20669;-60
2022/01/09 03:17:40;;;;;;;2.57;1.37;;;;;;;;;;5083969;28;20565;-60
2022/01/09 03:20:08;;;;;;;2.50;1.17;;;;;;;;;;5080778;28;20417;-60
2022/01/09 03:22:34;;;;;;;4.30;1.20;;;;;;;;;;5076636;28;20415;-60
2022/01/09 03:25:00;;;;;;;1.53;1.20;;;;;;;;;;5086902;28;20680;-60
2022/01/09 03:27:26;;;;;;;3.73;1.03;;;;;;;;;;5084523;28;20468;-60
2022/01/09 03:29:52;;;;;;;2.33;1.30;;;;;;;;;;5083743;28;20449;-60
2022/01/09 03:32:18;;;;;;;5.87;1.63;;;;;;;;;;5067036;28;20262;-60
2022/01/09 03:34:44;;;;;;;3.23;1.57;;;;;;;;;;5081662;28;20207;-61
2022/01/09 03:37:10;;;;;;;1.20;1.03;;;;;;;;;;5083177;28;20441;-60
2022/01/09 03:39:36;;;;;;;2.30;1.20;;;;;;;;;;5083246;28;20845;-60
2022/01/09 03:42:02;;;;;;;2.30;1.40;;;;;;;;;;5083334;28;20182;-60
2022/01/09 03:44:29;;;;;;;4.13;1.73;;;;;;;;;;5086903;28;20203;-60
2022/01/09 03:46:56;;;;;;;2.20;1.20;;;;;;;;;;5078879;28;20202;-60
2022/01/09 03:49:22;;;;;;;3.53;1.37;;;;;;;;;;5080993;28;20631;-61
2022/01/09 03:51:51;;;;;;;8.47;2.03;;;;;;;;;;5084951;28;20529;-61
2022/01/09 03:54:22;;;;;;;3.83;1.70;;;;;;;;;;5067153;28;20695;-60
2022/01/09 03:56:48;;;;;;;6.83;2.17;;;;;;;;;;5074667;28;20317;-60
2022/01/09 03:59:15;;;;;;;9.83;2.33;;;;;;;;;;5079439;28;20644;-60
2022/01/09 04:01:41;;;;;;;8.20;2.00;;;;;;;;;;5066394;28;20183;-60
2022/01/09 04:04:07;;;;;;;6.53;2.03;;;;;;;;;;5080022;28;20296;-61
2022/01/09 04:06:33;;;;;;;12.27;2.83;;;;;;;;;;5067404;28;20497;-60
2022/01/09 04:09:06;;;;;;;6.07;1.97;;;;;;;;;;5070731;28;20168;-61
2022/01/09 04:11:37;;;;;;;15.70;3.37;;;;;;;;;;5070124;28;20418;-61
2022/01/09 04:14:03;;;;;;;13.10;3.13;;;;;;;;;;5087384;28;20270;-61
2022/01/09 04:16:29;;;;;;;13.23;3.73;;;;;;;;;;5059926;28;20406;-60
2022/01/09 04:18:55;;;;;;;12.13;3.10;;;;;;;;;;5067278;28;20213;-60
2022/01/09 04:21:21;;;;;;;13.37;4.03;;;;;;;;;;5083182;28;20626;-60
2022/01/09 04:23:47;;;;;;;14.63;2.97;;;;;;;;;;5088151;28;20218;-60
2022/01/09 04:26:14;;;;;;;12.00;2.53;;;;;;;;;;5087961;28;20172;-60
2022/01/09 04:28:40;;;;;;;9.37;3.30;;;;;;;;;;5086940;28;20164;-60
2022/01/09 04:31:06;;;;;;;14.70;3.17;;;;;;;;;;5068238;28;20256;-60
2022/01/09 04:33:32;;;;;;;13.23;3.80;;;;;;;;;;5070402;28;20184;-61
2022/01/09 04:35:58;;;;;;;13.70;3.73;;;;;;;;;;5088367;28;20176;-60
2022/01/09 04:38:24;;;;;;;9.77;3.23;;;;;;;;;;5084502;28;20177;-60
2022/01/09 04:40:50;;;;;;;10.37;3.33;;;;;;;;;;5082229;28;20210;-60
2022/01/09 04:43:17;;;;;;;11.70;2.70;;;;;;;;;;5085132;28;20204;-60
2022/01/09 04:45:43;;;;;;;15.00;3.20;;;;;;;;;;5084068;28;20245;-60
2022/01/09 04:48:12;;;;;;;9.00;3.33;;;;;;;;;;5086710;28;20588;-60
2022/01/09 04:50:39;;;;;;;9.40;3.37;;;;;;;;;;5083764;28;20746;-60
2022/01/09 04:53:08;;;;;;;20.07;4.27;;;;;;;;;;5087374;28;20168;-60
2022/01/09 04:55:35;;;;;;;12.43;4.50;;;;;;;;;;5062057;28;20297;-60
2022/01/09 04:58:02;;;;;;;14.67;4.47;;;;;;;;;;5066606;28;20274;-60
2022/01/09 05:00:28;;;;;;;8.10;3.23;;;;;;;;;;5061558;28;20181;-60
2022/01/09 05:02:54;;;;;;;7.97;3.83;;;;;;;;;;5046680;28;20203;-60
2022/01/09 05:05:20;;;;;;;20.37;4.43;;;;;;;;;;5067943;28;20180;-60
2022/01/09 05:07:47;;;;;;;9.73;3.10;;;;;;;;;;5069322;28;20189;-60
2022/01/09 05:10:13;;;;;;;13.30;4.60;;;;;;;;;;5066472;28;20203;-59
2022/01/09 05:12:39;;;;;;;15.43;4.10;;;;;;;;;;5064333;28;20168;-60
2022/01/09 05:15:07;;;;;;;16.07;4.00;;;;;;;;;;5045540;28;20184;-59
2022/01/09 05:17:33;;;;;;;16.27;4.13;;;;;;;;;;5067583;28;20202;-59
2022/01/09 05:19:59;;;;;;;14.93;3.63;;;;;;;;;;5049354;28;20184;-59
2022/01/09 05:22:25;;;;;;;14.27;3.97;;;;;;;;;;5050305;28;20181;-59
2022/01/09 05:24:52;;;;;;;10.27;3.90;;;;;;;;;;5066498;28;20206;-60
2022/01/09 05:27:18;;;;;;;22.30;4.63;;;;;;;;;;5066782;28;20259;-60
2022/01/09 05:29:44;;;;;;;17.17;4.03;;;;;;;;;;5062831;28;20435;-60
2022/01/09 05:32:10;;;;;;;16.60;4.20;;;;;;;;;;5063849;28;20208;-59
2022/01/09 05:34:36;;;;;;;12.40;3.07;;;;;;;;;;5049222;28;20176;-59
2022/01/09 05:37:04;;;;;;;12.07;4.17;;;;;;;;;;5046605;28;20192;-60
2022/01/09 05:39:31;;;;;;;13.47;3.73;;;;;;;;;;5064636;28;20638;-60
2022/01/09 05:41:58;;;;;;;11.73;4.00;;;;;;;;;;5064160;28;20176;-60
2022/01/09 05:44:24;;;;;;;11.13;3.60;;;;;;;;;;5066989;28;20196;-60
2022/01/09 05:46:50;;;;;;;14.23;4.03;;;;;;;;;;5066590;28;20179;-60
2022/01/09 05:49:16;;;;;;;15.23;3.40;;;;;;;;;;5065795;28;20199;-60
2022/01/09 05:51:42;;;;;;;12.73;3.70;;;;;;;;;;5065437;28;20247;-59
2022/01/09 05:54:08;;;;;;;12.30;3.63;;;;;;;;;;5065940;28;20215;-60
2022/01/09 05:56:34;;;;;;;8.70;3.17;;;;;;;;;;5087344;28;20248;-60
2022/01/09 05:59:00;;;;;;;7.70;3.00;;;;;;;;;;5087609;28;20258;-60
2022/01/09 06:01:27;;;;;;;11.20;3.10;;;;;;;;;;5068676;28;20183;-60
2022/01/09 06:03:53;;;;;;;12.33;3.23;;;;;;;;;;5086303;28;20634;-60
2022/01/09 06:06:19;;;;;;;9.63;3.30;;;;;;;;;;5067245;28;20493;-60
2022/01/09 06:08:45;;;;;;;13.93;4.07;;;;;;;;;;5086791;28;20220;-59
2022/01/09 06:11:11;;;;;;;11.30;3.30;;;;;;;;;;5087329;28;20163;-60
2022/01/09 06:13:37;;;;;;;8.17;3.00;;;;;;;;;;5085802;28;20183;-60
2022/01/09 06:16:03;;;;;;;6.30;2.97;;;;;;;;;;5086714;28;20233;-60
2022/01/09 06:18:30;;;;;;;15.10;3.37;;;;;;;;;;5086274;28;20699;-59
2022/01/09 06:20:56;;;;;;;12.17;3.33;;;;;;;;;;5086903;28;20183;-60
2022/01/09 06:23:23;;;;;;;11.33;2.70;;;;;;;;;;5082234;28;20561;-63
2022/01/09 06:25:49;;;;;;;10.47;2.77;;;;;;;;;;5087420;28;20525;-60
2022/01/09 06:28:15;;;;;;;8.83;3.13;;;;;;;;;;5082993;28;20690;-60
2022/01/09 06:30:42;;;;;;;8.87;2.83;;;;;;;;;;5083999;28;20183;-60
2022/01/09 06:33:08;;;;;;;7.97;2.50;;;;;;;;;;5084976;28;20180;-60
2022/01/09 06:35:34;;;;;;;11.40;3.03;;;;;;;;;;5083680;28;20176;-60
2022/01/09 06:38:00;;;;;;;9.90;2.40;;;;;;;;;;5080546;28;20164;-60
2022/01/09 06:40:27;;;;;;;10.00;2.73;;;;;;;;;;5086227;28;20168;-60
2022/01/09 06:42:53;;;;;;;8.60;2.60;;;;;;;;;;5082026;28;20196;-60
2022/01/09 06:45:21;;;;;;;7.67;3.20;;;;;;;;;;5063791;28;20248;-60
2022/01/09 06:47:47;;;;;;;10.77;3.43;;;;;;;;;;5084251;28;20657;-60
2022/01/09 06:50:15;;;;;;;12.13;2.90;;;;;;;;;;5077269;28;20592;-60
2022/01/09 06:52:41;;;;;;;7.20;2.70;;;;;;;;;;5084566;28;20474;-60
2022/01/09 06:55:08;;;;;;;4.53;2.47;;;;;;;;;;5059960;28;20216;-60
2022/01/09 06:57:34;;;;;;;10.97;2.40;;;;;;;;;;5060982;28;20209;-63
2022/01/09 07:00:00;;;;;;;10.30;2.43;;;;;;;;;;5062252;28;20636;-60
2022/01/09 07:02:26;;;;;;;6.43;2.47;;;;;;;;;;5065311;28;20587;-60
2022/01/09 07:04:52;;;;;;;8.67;3.10;;;;;;;;;;5065050;28;20446;-60
2022/01/09 07:07:18;;;;;;;10.60;3.13;;;;;;;;;;5059287;28;20178;-60
2022/01/09 07:09:44;;;;;;;7.83;3.10;;;;;;;;;;5063308;28;20187;-60
2022/01/09 07:12:10;;;;;;;7.50;3.00;;;;;;;;;;5065682;28;20226;-60
2022/01/09 07:14:36;;;;;;;8.40;3.10;;;;;;;;;;5064285;28;20639;-60
2022/01/09 07:17:03;;;;;;;9.17;3.57;;;;;;;;;;5064844;28;20206;-60
2022/01/09 07:19:29;;;;;;;13.07;2.87;;;;;;;;;;5069263;28;20211;-59
2022/01/09 07:21:55;;;;;;;8.20;2.97;;;;;;;;;;5060042;28;20181;-60
2022/01/09 07:24:21;;;;;;;8.07;3.40;;;;;;;;;;5064758;28;20199;-60
2022/01/09 07:26:47;;;;;;;8.00;2.53;;;;;;;;;;5061806;28;20187;-60
2022/01/09 07:29:13;;;;;;;5.80;2.70;;;;;;;;;;5063441;28;20625;-60
2022/01/09 07:31:40;;;;;;;5.33;2.83;;;;;;;;;;5059985;28;20208;-60
2022/01/09 07:34:06;;;;;;;9.53;3.03;;;;;;;;;;5063697;28;20215;-60
2022/01/09 07:36:32;;;;;;;8.10;3.30;;;;;;;;;;5063621;28;20172;-60
2022/01/09 07:38:58;;;;;;;9.67;3.23;;;;;;;;;;5063403;28;20176;-59
2022/01/09 07:41:24;;;;;;;4.23;2.30;;;;;;;;;;5060559;28;20177;-59
2022/01/09 07:43:50;;;;;;;12.67;2.53;;;;;;;;;;5062914;28;21093;-60
2022/01/09 07:46:16;;;;;;;5.33;2.60;;;;;;;;;;5063377;28;20229;-60
2022/01/09 07:48:42;;;;;;;8.27;3.40;;;;;;;;;;5058563;28;20556;-60
2022/01/09 07:51:08;;;;;;;7.63;2.77;;;;;;;;;;5061190;28;20196;-60
2022/01/09 07:53:34;;;;;;;6.30;3.00;;;;;;;;;;5066326;28;20184;-60
2022/01/09 07:56:00;;;;;;;9.00;2.63;;;;;;;;;;5085526;28;20219;-60
2022/01/09 07:58:26;;;;;;;10.17;2.97;;;;;;;;;;5082884;28;20622;-59
2022/01/09 08:00:53;;;;;;;4.73;2.30;;;;;;;;;;5084941;28;20199;-60
2022/01/09 08:03:19;;;;;;;8.67;2.43;;;;;;;;;;5082359;28;20570;-59
2022/01/09 08:05:45;;;;;;;6.30;2.57;;;;;;;;;;5066194;28;20711;-59
2022/01/09 08:08:11;;;;;;;16.70;3.67;;;;;;;;;;5084444;28;20229;-59
2022/01/09 08:10:37;;;;;;;8.17;2.67;;;;;;;;;;5078782;28;20546;-59
2022/01/09 08:13:03;;;;;;;9.93;3.03;;;;;;;;;;5083473;28;20180;-60
2022/01/09 08:15:30;;;;;;;17.00;3.60;;;;;;;;;;5085568;28;20245;-60
2022/01/09 08:17:56;;;;;;;10.80;4.47;;;;;;;;;;5081653;28;20187;-61
2022/01/09 08:20:23;;;;;;;11.40;3.97;;;;;;;;;;5082962;28;20189;-59
2022/01/09 08:22:49;;;;;;;8.93;3.93;;;;;;;;;;5083200;28;20168;-60
2022/01/09 08:25:16;;;;;;;11.20;3.70;;;;;;;;;;5078821;28;20244;-59
2022/01/09 08:27:43;;;;;;;10.23;3.57;;;;;;;;;;5065658;28;20643;-59
2022/01/09 08:30:10;;;;;;;9.20;4.00;;;;;;;;;;5065020;28;20590;-60
2022/01/09 08:32:36;;;;;;;13.10;4.30;;;;;;;;;;5061176;28;20212;-61
2022/01/09 08:35:03;;;;;;;9.13;4.53;;;;;;;;;;5084310;28;20211;-60
2022/01/09 08:37:29;;;;;;;14.00;4.63;;;;;;;;;;5078926;28;20181;-59
2022/01/09 08:39:55;;;;;;;10.60;4.90;;;;;;;;;;5082009;28;20175;-59
2022/01/09 08:42:21;;;;;;;13.27;4.07;;;;;;;;;;5085238;28;20179;-60
2022/01/09 08:44:47;;;;;;;7.77;3.80;;;;;;;;;;5081010;28;20211;-60
2022/01/09 08:47:14;;;;;;;9.00;4.13;;;;;;;;;;5086995;28;20179;-59
2022/01/09 08:49:40;;;;;;;10.10;4.53;;;;;;;;;;5085965;28;20198;-59
2022/01/09 08:52:06;;;;;;;5.33;3.43;;;;;;;;;;5088064;28;20187;-60
2022/01/09 08:54:32;;;;;;;9.13;3.57;;;;;;;;;;5078297;28;20228;-59
2022/01/09 08:56:58;;;;;;;10.30;4.00;;;;;;;;;;5070744;28;20275;-60
2022/01/09 08:59:26;;;;;;;11.27;4.87;;;;;;;;;;5070352;28;20203;-59
2022/01/09 09:01:52;;;;;;;12.43;4.30;;;;;;;;;;5067744;28;20564;-60
2022/01/09 09:04:18;;;;;;;10.40;4.27;;;;;;;;;;5049475;28;20554;-60
2022/01/09 09:06:44;;;;;;;8.93;3.60;;;;;;;;;;5068344;28;20181;-60
2022/01/09 09:09:10;;;;;;;11.07;4.27;;;;;;;;;;5069561;28;20168;-60
2022/01/09 09:11:37;;;;;;;8.80;4.00;;;;;;;;;;5049958;28;20552;-59
2022/01/09 09:14:03;;;;;;;7.53;3.77;;;;;;;;;;5050188;28;20317;-59
2022/01/09 09:16:29;;;;;;;8.57;4.07;;;;;;;;;;5068457;28;20540;-59
2022/01/09 09:18:55;;;;;;;6.00;3.30;;;;;;;;;;5068002;28;20468;-60
2022/01/09 09:21:21;;;;;;;9.83;3.23;;;;;;;;;;5064965;28;20579;-59
2022/01/09 09:23:47;;;;;;;5.37;3.27;;;;;;;;;;5057575;28;20224;-59
2022/01/09 09:26:15;;;;;;;6.93;3.70;;;;;;;;;;5067511;28;20242;-59
2022/01/09 09:28:41;;;;;;;9.07;3.37;;;;;;;;;;5068000;28;20176;-60
2022/01/09 09:31:07;;;;;;;5.67;2.63;;;;;;;;;;5055741;28;20649;-60
2022/01/09 09:33:33;;;;;;;7.60;3.00;;;;;;;;;;5066924;28;20184;-60
2022/01/09 09:36:00;;;;;;;10.73;3.17;;;;;;;;;;5066103;28;20183;-60
2022/01/09 09:38:26;;;;;;;6.13;3.00;;;;;;;;;;5065965;28;20202;-60
2022/01/09 09:40:52;;;;;;;7.53;3.10;;;;;;;;;;5048902;28;20176;-59
2022/01/09 09:43:19;;;;;;;7.00;3.00;;;;;;;;;;5049178;28;20758;-59
2022/01/09 09:45:45;;;;;;;11.97;3.70;;;;;;;;;;5066967;28;20247;-60
2022/01/09 09:48:12;;;;;;;11.27;4.03;;;;;;;;;;5051469;28;20172;-59
2022/01/09 09:50:38;;;;;;;7.20;3.97;;;;;;;;;;5067588;28;20697;-59
2022/01/09 09:53:04;;;;;;;9.70;4.30;;;;;;;;;;5068965;28;20241;-60
2022/01/09 09:55:31;;;;;;;8.83;3.43;;;;;;;;;;5069162;28;20695;-59
2022/01/09 09:57:57;;;;;;;7.63;3.87;;;;;;;;;;5065597;28;20189;-60
2022/01/09 10:00:24;;;;;;;6.27;3.37;;;;;;;;;;5047980;28;20234;-59
2022/01/09 10:02:56;;;;;;;10.13;3.73;;;;;;;;;;5065791;28;20202;-60
2022/01/09 10:05:24;;;;;;;7.60;2.80;;;;;;;;;;5066709;28;20224;-59
2022/01/09 10:07:54;;;;;;;7.63;3.00;;;;;;;;;;5066185;28;20173;-60
2022/01/09 10:10:22;;;;;;;10.13;3.67;;;;;;;;;;5064998;28;20164;-60
2022/01/09 10:12:49;;;;;;;6.93;3.60;;;;;;;;;;5063466;28;20275;-60
2022/01/09 10:15:19;;;;;;;12.50;3.90;;;;;;;;;;5062642;28;20222;-59
2022/01/09 10:18:06;;;;;;;7.90;3.63;;;;;;;;;;5065420;28;21355;-60
2022/01/09 10:20:38;;;;;;;8.67;3.67;;;;;;;;;;5065064;28;20212;-60
2022/01/09 10:23:10;;;;;;;7.57;3.90;;;;;;;;;;5047375;28;20227;-59
2022/01/09 10:25:43;;;;;;;6.70;3.40;;;;;;;;;;5048902;28;20227;-59
2022/01/09 10:28:13;;;;;;;7.03;3.43;;;;;;;;;;5062411;28;20242;-59
2022/01/09 10:30:47;;;;;;;8.67;3.00;;;;;;;;;;5058559;28;20455;-60
2022/01/09 10:33:14;;;;;;;4.97;2.87;;;;;;;;;;5046300;28;20531;-60
2022/01/09 10:35:41;;;;;;;7.20;2.97;;;;;;;;;;5067313;28;20184;-60
2022/01/09 10:38:13;;;;;;;7.90;4.27;;;;;;;;;;5059363;28;20176;-59
2022/01/09 10:40:41;;;;;;;6.90;3.30;;;;;;;;;;5064651;28;20230;-60
2022/01/09 10:43:10;;;;;;;11.73;3.83;;;;;;;;;;5043673;28;20181;-59
2022/01/09 10:45:41;;;;;;;8.87;3.80;;;;;;;;;;5060311;28;20632;-60
2022/01/09 10:48:09;;;;;;;7.43;3.93;;;;;;;;;;5063475;28;20195;-59
2022/01/09 10:50:37;;;;;;;7.07;3.43;;;;;;;;;;5062015;28;20177;-59
2022/01/09 10:53:13;;;;;;;10.67;3.77;;;;;;;;;;5065470;28;20540;-60
2022/01/09 10:55:39;;;;;;;9.70;4.87;;;;;;;;;;5066648;28;20716;-60
2022/01/09 10:58:17;;;;;;;10.50;5.53;;;;;;;;;;5062796;28;20180;-61
2022/01/09 11:00:44;;;;;;;14.07;4.77;;;;;;;;;;5061428;28;20180;-60
2022/01/09 11:03:10;;;;;;;8.67;4.87;;;;;;;;;;5065950;28;20210;-60
2022/01/09 11:05:36;;;;;;;6.83;4.23;;;;;;;;;;5067095;28;20184;-60
2022/01/09 11:08:02;;;;;;;7.60;4.77;;;;;;;;;;5066640;28;20539;-60
2022/01/09 11:10:29;;;;;;;11.73;5.23;;;;;;;;;;5067610;28;20565;-59
2022/01/09 11:12:59;;;;;;;8.40;4.53;;;;;;;;;;5067165;28;20548;-60
2022/01/09 11:16:32;;;;;;;9.23;5.00;;;;;;;;;;5047607;28;20188;-60
2022/01/09 11:18:45;;;;;;;9.73;5.63;;;;;;;;;;5066664;28;20304;-60
2022/01/09 11:21:17;;;;;;;7.13;4.57;;;;;;;;;;5048619;28;20238;-60
2022/01/09 11:23:50;;;;;;;11.27;5.23;;;;;;;;;;5049338;28;20196;-59
2022/01/09 11:26:16;;;;;;;9.77;5.53;;;;;;;;;;5045195;28;20184;-60
2022/01/09 11:28:54;;;;;;;10.90;5.50;;;;;;;;;;5062608;28;20176;-60
2022/01/09 11:31:31;;;;;;;11.93;5.13;;;;;;;;;;5044894;28;20180;-60
2022/01/09 11:34:14;;;;;;;7.53;4.60;;;;;;;;;;5047731;28;20232;-60
2022/01/09 11:37:04;;;;;;;7.97;4.73;;;;;;;;;;5047426;28;20172;-60
2022/01/09 11:39:36;;;;;;;8.20;4.67;;;;;;;;;;5046750;28;20173;-59
2022/01/09 11:42:19;;;;;;;9.47;4.90;;;;;;;;;;5047024;28;20188;-60
2022/01/09 11:44:49;;;;;;;10.60;5.77;;;;;;;;;;5046993;28;20204;-60
2022/01/09 11:47:16;;;;;;;11.47;4.90;;;;;;;;;;5063950;28;20184;-60
2022/01/09 11:49:57;;;;;;;6.80;4.73;;;;;;;;;;5047918;28;20535;-60
2022/01/09 11:52:31;;;;;;;8.10;5.63;;;;;;;;;;5066279;28;20715;-60
2022/01/09 11:55:01;;;;;;;9.80;5.23;;;;;;;;;;5052067;28;20216;-59
2022/01/09 11:57:48;;;;;;;9.70;4.77;;;;;;;;;;5050934;28;20207;-59
2022/01/09 12:00:30;;;;;;;9.87;5.00;;;;;;;;;;5065083;28;20264;-59
2022/01/09 12:02:57;;;;;;;10.33;5.37;;;;;;;;;;5065128;28;20535;-59
2022/01/09 12:05:23;;;;;;;9.80;5.70;;;;;;;;;;5073943;28;20200;-60
2022/01/09 12:07:53;;;;;;;8.63;5.17;;;;;;;;;;5063938;28;20251;-60
2022/01/09 12:10:25;;;;;;;7.93;5.40;;;;;;;;;;5065432;28;20183;-59
2022/01/09 12:12:51;;;;;;;9.60;5.43;;;;;;;;;;5066242;28;20262;-59
2022/01/09 12:15:38;;;;;;;9.47;5.87;;;;;;;;;;5066691;28;20169;-59
2022/01/09 12:18:06;;;;;;;10.60;5.07;;;;;;;;;;5051793;28;20264;-60
2022/01/09 12:20:37;;;;;;;14.17;5.17;;;;;;;;;;5068411;28;20628;-60
2022/01/09 12:23:04;;;;;;;11.93;5.67;;;;;;;;;;5073881;28;20656;-60
2022/01/09 12:25:34;;;;;;;11.30;5.43;;;;;;;;;;5067844;28;20659;-60
2022/01/09 12:28:03;;;;;;;8.03;5.27;;;;;;;;;;5074464;28;20180;-59
2022/01/09 12:30:41;;;;;;;11.50;5.30;;;;;;;;;;5055870;28;20180;-60
2022/01/09 12:33:25;;;;;;;8.10;5.03;;;;;;;;;;5055589;28;20168;-60
2022/01/09 12:35:57;;;;;;;8.43;4.60;;;;;;;;;;5072115;28;20264;-59
2022/01/09 12:38:24;;;;;;;8.83;4.20;;;;;;;;;;5073204;28;20640;-60
2022/01/09 12:41:03;;;;;;;9.20;4.67;;;;;;;;;;5072011;28;20165;-59
2022/01/09 12:43:30;;;;;;;9.60;4.23;;;;;;;;;;5057930;28;20191;-59
2022/01/09 12:45:56;;;;;;;13.73;4.97;;;;;;;;;;5078642;28;20168;-59
2022/01/09 12:48:25;;;;;;;8.30;4.67;;;;;;;;;;5072392;28;20635;-59
2022/01/09 12:50:52;;;;;;;9.80;4.67;;;;;;;;;;5071782;28;20259;-59
2022/01/09 12:53:18;;;;;;;9.97;4.60;;;;;;;;;;5059521;28;20189;-59
2022/01/09 12:56:03;;;;;;;7.07;4.13;;;;;;;;;;5049964;28;20737;-59
2022/01/09 12:58:50;;;;;;;5.27;4.17;;;;;;;;;;5063986;28;20212;-59
2022/01/09 13:01:19;;;;;;;7.43;4.87;;;;;;;;;;5049740;28;20318;-59
2022/01/09 13:03:49;;;;;;;6.70;4.37;;;;;;;;;;5056735;28;20246;-59
2022/01/09 13:06:17;;;;;;;12.93;4.83;;;;;;;;;;5068620;28;20177;-59
2022/01/09 13:08:47;;;;;;;7.57;4.27;;;;;;;;;;5066871;28;20697;-59
2022/01/09 13:11:17;;;;;;;6.20;4.13;;;;;;;;;;5070987;28;20183;-59
2022/01/09 13:13:44;;;;;;;7.97;4.23;;;;;;;;;;5067254;28;20176;-59
2022/01/09 13:16:15;;;;;;;7.43;4.10;;;;;;;;;;5066281;28;20797;-58
2022/01/09 13:18:43;;;;;;;6.20;4.73;;;;;;;;;;5065511;28;20176;-59
2022/01/09 13:21:10;;;;;;;8.30;4.90;;;;;;;;;;5051155;28;20592;-59
2022/01/09 13:23:49;;;;;;;8.97;4.60;;;;;;;;;;5050946;28;20741;-59
2022/01/09 13:26:19;;;;;;;9.10;4.77;;;;;;;;;;5066628;28;20173;-59
2022/01/09 13:28:46;;;;;;;12.60;4.80;;;;;;;;;;5051740;28;20214;-59
2022/01/09 13:31:12;;;;;;;6.63;4.43;;;;;;;;;;5067379;28;20255;-59
2022/01/09 13:33:55;;;;;;;9.90;4.97;;;;;;;;;;5068221;28;20172;-60
2022/01/09 13:36:38;;;;;;;9.93;4.80;;;;;;;;;;5057474;28;20188;-59
2022/01/09 13:39:09;;;;;;;5.40;4.43;;;;;;;;;;5053942;28;20279;-59
2022/01/09 13:41:37;;;;;;;10.53;4.27;;;;;;;;;;5067264;28;20176;-59
2022/01/09 13:44:03;;;;;;;6.77;4.93;;;;;;;;;;5067064;28;20238;-59
2022/01/09 13:46:30;;;;;;;10.37;5.13;;;;;;;;;;5063337;28;20533;-59
2022/01/09 13:48:56;;;;;;;7.23;4.43;;;;;;;;;;5057292;28;20565;-59
2022/01/09 13:51:41;;;;;;;8.00;4.77;;;;;;;;;;5068722;28;20200;-59
2022/01/09 13:54:08;;;;;;;14.57;5.07;;;;;;;;;;5050867;28;20215;-60
2022/01/09 13:56:34;;;;;;;11.03;4.23;;;;;;;;;;5074193;28;20318;-59
2022/01/09 13:59:04;;;;;;;11.40;3.93;;;;;;;;;;5051703;28;20180;-59
2022/01/09 14:01:45;;;;;;;8.67;4.53;;;;;;;;;;5069053;28;20770;-58
2022/01/09 14:04:12;;;;;;;10.00;4.47;;;;;;;;;;5072051;28;20196;-59
2022/01/09 14:06:41;;;;;;;9.23;4.30;;;;;;;;;;5070695;28;20187;-60
2022/01/09 14:09:10;;;;;;;11.90;4.00;;;;;;;;;;5049672;28;20227;-60
2022/01/09 14:11:42;;;;;;;7.87;3.93;;;;;;;;;;5069044;28;20184;-59
2022/01/09 14:14:11;;;;;;;7.87;4.67;;;;;;;;;;5050817;28;20209;-60
2022/01/09 14:16:37;;;;;;;5.87;4.27;;;;;;;;;;5070875;28;20187;-60
2022/01/09 14:19:06;;;;;;;11.37;4.47;;;;;;;;;;5069523;28;20649;-59
2022/01/09 14:21:32;;;;;;;8.60;4.43;;;;;;;;;;5045130;28;20238;-59
2022/01/09 14:24:07;;;;;;;10.20;4.13;;;;;;;;;;5068396;28;20196;-58
2022/01/09 14:26:33;;;;;;;10.27;4.73;;;;;;;;;;5067653;28;20283;-59
2022/01/09 14:28:59;;;;;;;7.63;4.57;;;;;;;;;;5066813;28;20179;-59
2022/01/09 14:31:26;;;;;;;6.50;3.77;;;;;;;;;;5067213;28;20203;-59
2022/01/09 14:33:54;;;;;;;8.13;4.57;;;;;;;;;;5068125;28;20207;-59
2022/01/09 14:36:28;;;;;;;11.33;4.87;;;;;;;;;;5068506;28;20681;-59
2022/01/09 14:38:58;;;;;;;9.03;4.17;;;;;;;;;;5064180;28;20171;-59
2022/01/09 14:41:25;;;;;;;10.37;4.20;;;;;;;;;;5067739;28;20241;-59
2022/01/09 14:43:51;;;;;;;5.67;3.33;;;;;;;;;;5067017;28;20200;-58